Time,TemperatureF,DewpointF,PressureIn,WindDirection,WindDirectionDegrees,WindSpeedMPH,WindSpeedGustMPH,Humidity,HourlyPrecipIn,Conditions,Clouds,dailyrainin,SoftwareType,DateUTC
2013-05-07 00:01:00,53.4,40.4,30.14,NE,45,0.0,0.0,61,0.00,,,0.00,WUHU21623XXSP,2013-05-07 04:01:00,
2013-05-07 00:06:00,53.1,40.1,30.14,NE,45,0.0,0.0,61,0.00,,,0.00,WUHU21623XXSP,2013-05-07 04:06:00,
2013-05-07 00:11:00,53.1,40.1,30.15,NE,45,0.0,0.0,61,0.00,,,0.00,WUHU21623XXSP,2013-05-07 04:11:00,
2013-05-07 00:16:00,52.5,40.0,30.15,NE,45,0.0,0.0,62,0.00,,,0.00,WUHU21623XXSP,2013-05-07 04:16:00,
2013-05-07 00:21:00,52.3,40.2,30.14,NE,45,0.0,0.0,63,0.00,,,0.00,WUHU21623XXSP,2013-05-07 04:21:00,
2013-05-07 00:26:00,52.2,40.5,30.15,NE,45,0.0,0.0,64,0.00,,,0.00,WUHU21623XXSP,2013-05-07 04:26:00,
2013-05-07 00:31:00,52.0,40.7,30.15,NE,45,0.0,0.0,65,0.00,,,0.00,WUHU21623XXSP,2013-05-07 04:31:00,
2013-05-07 00:36:00,51.8,40.5,30.15,NE,45,0.0,0.0,65,0.00,,,0.00,WUHU21623XXSP,2013-05-07 04:36:00,
2013-05-07 00:41:00,51.6,40.3,30.14,NE,45,0.0,0.0,65,0.00,,,0.00,WUHU21623XXSP,2013-05-07 04:41:00,
2013-05-07 00:46:00,51.4,40.1,30.14,NE,45,0.0,0.0,65,0.00,,,0.00,WUHU21623XXSP,2013-05-07 04:46:00,
2013-05-07 00:51:00,51.3,40.4,30.14,NE,45,0.0,0.0,66,0.00,,,0.00,WUHU21623XXSP,2013-05-07 04:51:00,
2013-05-07 00:56:00,50.9,40.1,30.14,NE,45,0.0,0.0,66,0.00,,,0.00,WUHU21623XXSP,2013-05-07 04:56:00,
2013-05-07 01:01:00,50.7,40.3,30.14,NE,45,0.0,0.0,67,0.00,,,0.00,WUHU21623XXSP,2013-05-07 05:01:00,
2013-05-07 01:06:00,50.5,40.1,30.14,NE,45,0.0,0.0,67,0.00,,,0.00,WUHU21623XXSP,2013-05-07 05:06:00,
2013-05-07 01:11:00,50.4,40.3,30.14,NE,45,0.0,0.0,68,0.00,,,0.00,WUHU21623XXSP,2013-05-07 05:11:00,
2013-05-07 01:16:00,50.2,40.2,30.14,NE,45,0.0,0.0,68,0.00,,,0.00,WUHU21623XXSP,2013-05-07 05:16:00,
2013-05-07 01:21:00,49.6,39.6,30.14,NE,45,0.0,0.0,68,0.00,,,0.00,WUHU21623XXSP,2013-05-07 05:21:00,
2013-05-07 01:26:00,49.6,40.0,30.14,NE,45,0.0,0.0,69,0.00,,,0.00,WUHU21623XXSP,2013-05-07 05:26:00,
2013-05-07 01:31:00,49.6,40.0,30.14,NE,45,0.0,0.0,69,0.00,,,0.00,WUHU21623XXSP,2013-05-07 05:31:00,
2013-05-07 01:36:00,49.5,39.9,30.15,NE,45,0.0,0.0,69,0.00,,,0.00,WUHU21623XXSP,2013-05-07 05:36:00,
2013-05-07 01:41:00,49.1,39.5,30.14,NE,45,0.0,0.0,69,0.00,,,0.00,WUHU21623XXSP,2013-05-07 05:41:00,
2013-05-07 01:46:00,48.9,40.0,30.14,NE,45,0.0,0.0,71,0.00,,,0.00,WUHU21623XXSP,2013-05-07 05:46:00,
2013-05-07 01:51:00,48.6,39.7,30.14,NE,45,0.0,0.0,71,0.00,,,0.00,WUHU21623XXSP,2013-05-07 05:51:00,
2013-05-07 01:56:00,48.4,39.5,30.14,NE,45,0.0,0.0,71,0.00,,,0.00,WUHU21623XXSP,2013-05-07 05:56:00,
2013-05-07 02:01:00,48.2,39.3,30.14,NE,45,0.0,0.0,71,0.00,,,0.00,WUHU21623XXSP,2013-05-07 06:01:00,
2013-05-07 02:06:00,47.8,38.9,30.14,NE,45,0.0,0.0,71,0.00,,,0.00,WUHU21623XXSP,2013-05-07 06:06:00,
2013-05-07 02:11:00,47.7,39.2,30.14,NE,45,0.0,0.0,72,0.00,,,0.00,WUHU21623XXSP,2013-05-07 06:11:00,
2013-05-07 02:16:00,47.5,39.0,30.14,NE,45,0.0,0.0,72,0.00,,,0.00,WUHU21623XXSP,2013-05-07 06:16:00,
2013-05-07 02:21:00,47.1,39.0,30.14,NE,45,0.0,0.0,73,0.00,,,0.00,WUHU21623XXSP,2013-05-07 06:21:00,
2013-05-07 02:26:00,47.1,39.0,30.14,NE,45,0.0,0.0,73,0.00,,,0.00,WUHU21623XXSP,2013-05-07 06:26:00,
2013-05-07 02:31:00,46.9,38.8,30.14,NE,45,0.0,0.0,73,0.00,,,0.00,WUHU21623XXSP,2013-05-07 06:31:00,
2013-05-07 02:36:00,46.8,39.0,30.14,NE,45,0.0,0.0,74,0.00,,,0.00,WUHU21623XXSP,2013-05-07 06:36:00,
2013-05-07 02:41:00,46.6,38.8,30.13,NE,45,0.0,0.0,74,0.00,,,0.00,WUHU21623XXSP,2013-05-07 06:41:00,
2013-05-07 02:46:00,46.2,38.4,30.13,NE,45,0.0,0.0,74,0.00,,,0.00,WUHU21623XXSP,2013-05-07 06:46:00,
2013-05-07 02:51:00,45.9,38.2,30.14,NE,45,0.0,0.0,74,0.00,,,0.00,WUHU21623XXSP,2013-05-07 06:51:00,
2013-05-07 02:56:00,45.9,38.2,30.13,NE,45,0.0,0.0,74,0.00,,,0.00,WUHU21623XXSP,2013-05-07 06:56:00,
2013-05-07 03:01:00,45.7,38.0,30.13,NE,45,0.0,0.0,74,0.00,,,0.00,WUHU21623XXSP,2013-05-07 07:01:00,
2013-05-07 03:06:00,45.5,38.1,30.13,NE,45,0.0,0.0,75,0.00,,,0.00,WUHU21623XXSP,2013-05-07 07:06:00,
2013-05-07 03:11:00,45.5,38.1,30.13,NE,45,0.0,0.0,75,0.00,,,0.00,WUHU21623XXSP,2013-05-07 07:11:00,
2013-05-07 03:16:00,45.5,38.1,30.13,NE,45,0.0,0.0,75,0.00,,,0.00,WUHU21623XXSP,2013-05-07 07:16:00,
2013-05-07 03:21:00,45.5,38.4,30.13,NE,45,0.0,0.0,76,0.00,,,0.00,WUHU21623XXSP,2013-05-07 07:21:00,
2013-05-07 03:26:00,45.5,38.4,30.13,NE,45,0.0,0.0,76,0.00,,,0.00,WUHU21623XXSP,2013-05-07 07:26:00,
2013-05-07 03:31:00,45.0,37.9,30.14,NE,45,0.0,0.0,76,0.00,,,0.00,WUHU21623XXSP,2013-05-07 07:31:00,
2013-05-07 03:36:00,44.8,37.8,30.14,NE,45,0.0,0.0,76,0.00,,,0.00,WUHU21623XXSP,2013-05-07 07:36:00,
2013-05-07 03:41:00,44.2,37.2,30.14,NE,45,0.0,0.0,76,0.00,,,0.00,WUHU21623XXSP,2013-05-07 07:41:00,
2013-05-07 03:46:00,44.2,37.2,30.13,NE,45,0.0,0.0,76,0.00,,,0.00,WUHU21623XXSP,2013-05-07 07:46:00,
2013-05-07 03:51:00,44.1,37.1,30.13,NE,45,0.0,0.0,76,0.00,,,0.00,WUHU21623XXSP,2013-05-07 07:51:00,
2013-05-07 03:56:00,43.9,36.9,30.14,NE,45,0.0,0.0,76,0.00,,,0.00,WUHU21623XXSP,2013-05-07 07:56:00,
2013-05-07 04:01:00,44.1,37.1,30.14,NE,45,0.0,0.0,76,0.00,,,0.00,WUHU21623XXSP,2013-05-07 08:01:00,
2013-05-07 04:06:00,43.7,36.7,30.14,NE,45,0.0,0.0,76,0.00,,,0.00,WUHU21623XXSP,2013-05-07 08:06:00,
2013-05-07 04:11:00,43.7,36.7,30.14,NE,45,0.0,0.0,76,0.00,,,0.00,WUHU21623XXSP,2013-05-07 08:11:00,
2013-05-07 04:16:00,43.5,37.1,30.14,NE,45,0.0,0.0,78,0.00,,,0.00,WUHU21623XXSP,2013-05-07 08:16:00,
2013-05-07 04:21:00,43.3,36.9,30.14,NE,45,0.0,0.0,78,0.00,,,0.00,WUHU21623XXSP,2013-05-07 08:21:00,
2013-05-07 04:26:00,43.3,36.9,30.14,NE,45,0.0,0.0,78,0.00,,,0.00,WUHU21623XXSP,2013-05-07 08:26:00,
2013-05-07 04:31:00,43.2,36.8,30.13,NE,45,0.0,0.0,78,0.00,,,0.00,WUHU21623XXSP,2013-05-07 08:31:00,
2013-05-07 04:36:00,43.0,36.6,30.13,NE,45,0.0,0.0,78,0.00,,,0.00,WUHU21623XXSP,2013-05-07 08:36:00,
2013-05-07 04:41:00,42.6,36.3,30.13,NE,45,0.0,0.0,78,0.00,,,0.00,WUHU21623XXSP,2013-05-07 08:41:00,
2013-05-07 04:46:00,42.6,36.3,30.14,NE,45,0.0,0.0,78,0.00,,,0.00,WUHU21623XXSP,2013-05-07 08:46:00,
2013-05-07 04:51:00,42.4,36.1,30.14,NE,45,0.0,0.0,78,0.00,,,0.00,WUHU21623XXSP,2013-05-07 08:51:00,
2013-05-07 04:56:00,42.4,36.1,30.14,NE,45,0.0,0.0,78,0.00,,,0.00,WUHU21623XXSP,2013-05-07 08:56:00,
2013-05-07 05:01:00,42.3,36.0,30.14,NE,45,0.0,0.0,78,0.00,,,0.00,WUHU21623XXSP,2013-05-07 09:01:00,
2013-05-07 05:06:00,41.9,35.6,30.14,NE,45,0.0,0.0,78,0.00,,,0.00,WUHU21623XXSP,2013-05-07 09:06:00,
2013-05-07 05:11:00,41.9,35.6,30.14,NE,45,0.0,0.0,78,0.00,,,0.00,WUHU21623XXSP,2013-05-07 09:11:00,
2013-05-07 05:16:00,41.7,36.0,30.14,NE,45,0.0,0.0,80,0.00,,,0.00,WUHU21623XXSP,2013-05-07 09:16:00,
2013-05-07 05:21:00,41.9,36.2,30.14,NE,45,0.0,0.0,80,0.00,,,0.00,WUHU21623XXSP,2013-05-07 09:21:00,
2013-05-07 05:26:00,41.7,36.0,30.14,NE,45,0.0,0.0,80,0.00,,,0.00,WUHU21623XXSP,2013-05-07 09:26:00,
2013-05-07 05:31:00,41.5,35.8,30.15,NE,45,0.0,0.0,80,0.00,,,0.00,WUHU21623XXSP,2013-05-07 09:31:00,
2013-05-07 05:36:00,41.4,35.7,30.15,NE,45,0.0,0.0,80,0.00,,,0.00,WUHU21623XXSP,2013-05-07 09:36:00,
2013-05-07 05:41:00,41.4,35.7,30.15,NE,45,0.0,0.0,80,0.00,,,0.00,WUHU21623XXSP,2013-05-07 09:41:00,
2013-05-07 05:46:00,41.2,35.5,30.15,NE,45,0.0,0.0,80,0.00,,,0.00,WUHU21623XXSP,2013-05-07 09:46:00,
2013-05-07 05:51:00,41.2,35.5,30.15,NE,45,0.0,0.0,80,0.00,,,0.00,WUHU21623XXSP,2013-05-07 09:51:00,
2013-05-07 05:56:00,41.2,35.5,30.15,NE,45,0.0,0.0,80,0.00,,,0.00,WUHU21623XXSP,2013-05-07 09:56:00,
2013-05-07 06:01:00,41.2,35.5,30.15,NE,45,0.0,0.0,80,0.00,,,0.00,WUHU21623XXSP,2013-05-07 10:01:00,
2013-05-07 06:06:00,41.0,35.3,30.15,NE,45,0.0,0.0,80,0.00,,,0.00,WUHU21623XXSP,2013-05-07 10:06:00,
2013-05-07 06:11:00,41.2,35.8,30.15,NE,45,0.0,0.0,81,0.00,,,0.00,WUHU21623XXSP,2013-05-07 10:11:00,
2013-05-07 06:16:00,41.2,35.8,30.15,NE,45,0.0,0.0,81,0.00,,,0.00,WUHU21623XXSP,2013-05-07 10:16:00,
2013-05-07 06:21:00,41.4,36.0,30.15,NE,45,0.0,0.0,81,0.00,,,0.00,WUHU21623XXSP,2013-05-07 10:21:00,
2013-05-07 06:26:00,41.4,36.0,30.15,NE,45,0.0,0.0,81,0.00,,,0.00,WUHU21623XXSP,2013-05-07 10:26:00,
2013-05-07 06:31:00,41.7,36.3,30.16,NE,45,0.0,0.0,81,0.00,,,0.00,WUHU21623XXSP,2013-05-07 10:31:00,
2013-05-07 06:36:00,41.9,36.5,30.15,NE,45,0.0,0.0,81,0.00,,,0.00,WUHU21623XXSP,2013-05-07 10:36:00,
2013-05-07 06:41:00,41.9,36.5,30.15,NE,45,0.0,0.0,81,0.00,,,0.00,WUHU21623XXSP,2013-05-07 10:41:00,
2013-05-07 06:46:00,42.3,36.9,30.15,NE,45,0.0,0.0,81,0.00,,,0.00,WUHU21623XXSP,2013-05-07 10:46:00,
2013-05-07 06:51:00,42.3,36.9,30.15,NE,45,0.0,0.0,81,0.00,,,0.00,WUHU21623XXSP,2013-05-07 10:51:00,
2013-05-07 06:56:00,42.4,37.3,30.15,NE,45,0.0,0.0,82,0.00,,,0.00,WUHU21623XXSP,2013-05-07 10:56:00,
2013-05-07 07:01:00,42.4,37.3,30.15,NE,45,0.0,0.0,82,0.00,,,0.00,WUHU21623XXSP,2013-05-07 11:01:00,
2013-05-07 07:06:00,43.0,37.9,30.15,NE,45,0.0,0.0,82,0.00,,,0.00,WUHU21623XXSP,2013-05-07 11:06:00,
2013-05-07 07:11:00,43.2,38.1,30.15,NE,45,0.0,0.0,82,0.00,,,0.00,WUHU21623XXSP,2013-05-07 11:11:00,
2013-05-07 07:16:00,43.3,38.5,30.15,NE,45,0.0,0.0,83,0.00,,,0.00,WUHU21623XXSP,2013-05-07 11:16:00,
2013-05-07 07:21:00,43.7,38.6,30.15,NE,45,0.0,0.0,82,0.00,,,0.00,WUHU21623XXSP,2013-05-07 11:21:00,
2013-05-07 07:26:00,44.2,39.1,30.15,NE,45,0.0,0.0,82,0.00,,,0.00,WUHU21623XXSP,2013-05-07 11:26:00,
2013-05-07 07:31:00,44.8,40.0,30.15,NE,45,0.0,0.0,83,0.00,,,0.00,WUHU21623XXSP,2013-05-07 11:31:00,
2013-05-07 07:36:00,45.3,40.4,30.15,NE,45,0.0,0.0,83,0.00,,,0.00,WUHU21623XXSP,2013-05-07 11:36:00,
2013-05-07 07:41:00,45.9,41.0,30.15,NE,45,0.0,0.0,83,0.00,,,0.00,WUHU21623XXSP,2013-05-07 11:41:00,
2013-05-07 07:46:00,46.4,41.5,30.15,NE,45,0.0,0.0,83,0.00,,,0.00,WUHU21623XXSP,2013-05-07 11:46:00,
2013-05-07 07:51:00,47.1,42.5,30.15,NE,45,0.0,0.0,84,0.00,,,0.00,WUHU21623XXSP,2013-05-07 11:51:00,
2013-05-07 07:56:00,47.7,42.8,30.15,NE,45,0.0,0.0,83,0.00,,,0.00,WUHU21623XXSP,2013-05-07 11:56:00,
2013-05-07 08:01:00,48.4,43.5,30.15,NE,45,0.0,0.0,83,0.00,,,0.00,WUHU21623XXSP,2013-05-07 12:01:00,
2013-05-07 08:06:00,48.9,44.3,30.15,NE,45,0.0,0.0,84,0.00,,,0.00,WUHU21623XXSP,2013-05-07 12:06:00,
2013-05-07 08:11:00,50.4,45.7,30.15,NE,45,0.0,0.0,84,0.00,,,0.00,WUHU21623XXSP,2013-05-07 12:11:00,
2013-05-07 08:16:00,51.4,46.1,30.15,WNW,292,0.0,0.0,82,0.00,,,0.00,WUHU21623XXSP,2013-05-07 12:16:00,
2013-05-07 08:21:00,52.2,46.3,30.15,WNW,292,0.0,0.0,80,0.00,,,0.00,WUHU21623XXSP,2013-05-07 12:21:00,
2013-05-07 08:26:00,52.9,46.0,30.15,WNW,292,0.0,0.0,77,0.00,,,0.00,WUHU21623XXSP,2013-05-07 12:26:00,
2013-05-07 08:31:00,53.6,46.3,30.15,West,270,0.0,0.0,76,0.00,,,0.00,WUHU21623XXSP,2013-05-07 12:31:00,
2013-05-07 08:36:00,54.0,46.0,30.15,West,270,0.0,0.0,74,0.00,,,0.00,WUHU21623XXSP,2013-05-07 12:36:00,
2013-05-07 08:41:00,54.7,46.3,30.15,West,270,0.0,0.0,73,0.00,,,0.00,WUHU21623XXSP,2013-05-07 12:41:00,
2013-05-07 08:46:00,55.4,47.0,30.15,West,270,0.0,0.0,73,0.00,,,0.00,WUHU21623XXSP,2013-05-07 12:46:00,
2013-05-07 08:51:00,56.1,46.9,30.15,West,270,0.0,0.0,71,0.00,,,0.00,WUHU21623XXSP,2013-05-07 12:51:00,
2013-05-07 08:56:00,56.8,46.5,30.15,NW,315,0.0,0.0,68,0.00,,,0.00,WUHU21623XXSP,2013-05-07 12:56:00,
2013-05-07 09:01:00,57.6,46.9,30.15,West,270,0.0,2.3,67,0.00,,,0.00,WUHU21623XXSP,2013-05-07 13:01:00,
2013-05-07 09:06:00,57.9,46.3,30.15,East,90,1.8,2.7,65,0.00,,,0.00,WUHU21623XXSP,2013-05-07 13:06:00,
2013-05-07 09:11:00,59.0,47.0,30.15,East,90,0.0,2.7,64,0.00,,,0.00,WUHU21623XXSP,2013-05-07 13:11:00,
2013-05-07 09:16:00,59.5,47.0,30.15,WSW,247,1.4,4.3,63,0.00,,,0.00,WUHU21623XXSP,2013-05-07 13:16:00,
2013-05-07 09:21:00,60.3,46.9,30.14,West,270,0.0,4.3,61,0.00,,,0.00,WUHU21623XXSP,2013-05-07 13:21:00,
2013-05-07 09:26:00,60.4,46.6,30.14,WSW,247,0.0,2.7,60,0.00,,,0.00,WUHU21623XXSP,2013-05-07 13:26:00,
2013-05-07 09:31:00,61.5,47.6,30.14,West,270,0.0,3.0,60,0.00,,,0.00,WUHU21623XXSP,2013-05-07 13:31:00,
2013-05-07 09:36:00,62.1,47.3,30.14,WSW,247,0.0,4.8,58,0.00,,,0.00,WUHU21623XXSP,2013-05-07 13:36:00,
2013-05-07 09:41:00,62.6,47.3,30.14,WSW,247,1.1,4.8,57,0.00,,,0.00,WUHU21623XXSP,2013-05-07 13:41:00,
2013-05-07 09:46:00,63.1,47.3,30.13,WSW,247,0.0,2.1,56,0.00,,,0.00,WUHU21623XXSP,2013-05-07 13:46:00,
2013-05-07 09:51:00,64.0,48.1,30.14,WSW,247,1.4,2.8,56,0.00,,,0.00,WUHU21623XXSP,2013-05-07 13:51:00,
2013-05-07 09:56:00,64.8,48.4,30.13,WSW,247,0.0,2.8,55,0.00,,,0.00,WUHU21623XXSP,2013-05-07 13:56:00,
2013-05-07 10:01:00,65.5,48.0,30.13,NE,45,0.0,2.3,53,0.00,,,0.00,WUHU21623XXSP,2013-05-07 14:01:00,
2013-05-07 10:06:00,66.0,48.5,30.13,SSW,202,1.0,3.0,53,0.00,,,0.00,WUHU21623XXSP,2013-05-07 14:06:00,
2013-05-07 10:11:00,67.6,49.9,30.13,SW,225,0.0,3.3,53,0.00,,,0.00,WUHU21623XXSP,2013-05-07 14:11:00,
2013-05-07 10:16:00,67.5,47.7,30.13,ENE,67,0.0,5.0,49,0.00,,,0.00,WUHU21623XXSP,2013-05-07 14:16:00,
2013-05-07 10:21:00,68.5,49.2,30.12,ENE,67,0.0,5.0,50,0.00,,,0.00,WUHU21623XXSP,2013-05-07 14:21:00,
2013-05-07 10:26:00,69.3,48.8,30.12,North,0,2.4,5.8,48,0.00,,,0.00,WUHU21623XXSP,2013-05-07 14:26:00,
2013-05-07 10:31:00,69.8,48.1,30.12,SW,225,0.0,5.8,46,0.00,,,0.00,WUHU21623XXSP,2013-05-07 14:31:00,
2013-05-07 10:36:00,69.6,47.3,30.12,NNW,337,0.0,5.0,45,0.00,,,0.00,WUHU21623XXSP,2013-05-07 14:36:00,
2013-05-07 10:41:00,70.5,48.1,30.12,ENE,67,0.0,4.8,45,0.00,,,0.00,WUHU21623XXSP,2013-05-07 14:41:00,
2013-05-07 10:46:00,70.2,45.9,30.12,ENE,67,0.0,4.8,42,0.00,,,0.00,WUHU21623XXSP,2013-05-07 14:46:00,
2013-05-07 10:51:00,71.2,46.2,30.12,East,90,1.6,4.6,41,0.00,,,0.00,WUHU21623XXSP,2013-05-07 14:51:00,
2013-05-07 10:56:00,72.3,46.5,30.12,ESE,112,0.0,4.6,40,0.00,,,0.00,WUHU21623XXSP,2013-05-07 14:56:00,
2013-05-07 11:01:00,71.8,44.7,30.12,SSW,202,2.5,4.0,38,0.00,,,0.00,WUHU21623XXSP,2013-05-07 15:01:00,
2013-05-07 11:06:00,72.9,45.7,30.12,WSW,247,0.0,4.5,38,0.00,,,0.00,WUHU21623XXSP,2013-05-07 15:06:00,
2013-05-07 11:11:00,73.6,47.0,30.12,NNW,337,1.1,7.6,39,0.00,,,0.00,WUHU21623XXSP,2013-05-07 15:11:00,
2013-05-07 11:16:00,73.6,46.3,30.12,West,270,2.4,7.6,38,0.00,,,0.00,WUHU21623XXSP,2013-05-07 15:16:00,
2013-05-07 11:21:00,73.0,42.8,30.12,SSW,202,3.0,6.4,34,0.00,,,0.00,WUHU21623XXSP,2013-05-07 15:21:00,
2013-05-07 11:26:00,73.9,44.4,30.12,SW,225,1.7,6.4,35,0.00,,,0.00,WUHU21623XXSP,2013-05-07 15:26:00,
2013-05-07 11:31:00,74.7,44.3,30.11,West,270,2.9,6.0,34,0.00,,,0.00,WUHU21623XXSP,2013-05-07 15:31:00,
2013-05-07 11:36:00,75.6,45.1,30.11,NE,45,1.2,6.0,34,0.00,,,0.00,WUHU21623XXSP,2013-05-07 15:36:00,
2013-05-07 11:41:00,75.9,45.4,30.11,ENE,67,2.5,8.2,34,0.00,,,0.00,WUHU21623XXSP,2013-05-07 15:41:00,
2013-05-07 11:46:00,77.0,45.5,30.11,West,270,4.3,10.5,33,0.00,,,0.00,WUHU21623XXSP,2013-05-07 15:46:00,
2013-05-07 11:51:00,76.8,43.7,30.10,ENE,67,4.5,10.5,31,0.00,,,0.00,WUHU21623XXSP,2013-05-07 15:51:00,
2013-05-07 11:56:00,77.2,45.7,30.10,West,270,2.8,7.2,33,0.00,,,0.00,WUHU21623XXSP,2013-05-07 15:56:00,
2013-05-07 12:01:00,77.4,44.2,30.10,NE,45,0.0,8.2,31,0.00,,,0.00,WUHU21623XXSP,2013-05-07 16:01:00,
2013-05-07 12:06:00,77.4,44.2,30.09,WNW,292,3.3,8.2,31,0.00,,,0.00,WUHU21623XXSP,2013-05-07 16:06:00,
2013-05-07 12:11:00,77.9,42.0,30.10,ENE,67,1.7,7.6,28,0.00,,,0.00,WUHU21623XXSP,2013-05-07 16:11:00,
2013-05-07 12:16:00,78.3,42.4,30.10,WSW,247,4.8,6.6,28,0.00,,,0.00,WUHU21623XXSP,2013-05-07 16:16:00,
2013-05-07 12:21:00,78.6,37.6,30.09,West,270,3.5,6.1,23,0.00,,,0.00,WUHU21623XXSP,2013-05-07 16:21:00,
2013-05-07 12:26:00,79.0,40.1,30.09,NE,45,2.9,6.1,25,0.00,,,0.00,WUHU21623XXSP,2013-05-07 16:26:00,
2013-05-07 12:31:00,79.5,40.5,30.10,NE,45,0.0,5.7,25,0.00,,,0.00,WUHU21623XXSP,2013-05-07 16:31:00,
2013-05-07 12:36:00,79.2,34.6,30.09,NE,45,0.0,4.2,20,0.00,,,0.00,WUHU21623XXSP,2013-05-07 16:36:00,
2013-05-07 12:41:00,79.5,34.9,30.09,SW,225,0.0,4.2,20,0.00,,,0.00,WUHU21623XXSP,2013-05-07 16:41:00,
2013-05-07 12:46:00,79.0,34.5,30.08,West,270,2.8,5.0,20,0.00,,,0.00,WUHU21623XXSP,2013-05-07 16:46:00,
2013-05-07 12:51:00,80.2,35.5,30.09,North,0,0.0,8.5,20,0.00,,,0.00,WUHU21623XXSP,2013-05-07 16:51:00,
2013-05-07 12:56:00,80.1,35.4,30.08,SW,225,3.0,8.5,20,0.00,,,0.00,WUHU21623XXSP,2013-05-07 16:56:00,
2013-05-07 13:01:00,80.8,36.0,30.09,WSW,247,0.0,6.4,20,0.00,,,0.00,WUHU21623XXSP,2013-05-07 17:01:00,
2013-05-07 13:06:00,81.0,36.1,30.09,West,270,4.6,6.4,20,0.00,,,0.00,WUHU21623XXSP,2013-05-07 17:06:00,
2013-05-07 13:11:00,81.9,36.9,30.08,West,270,7.9,8.6,20,0.00,,,0.00,WUHU21623XXSP,2013-05-07 17:11:00,
2013-05-07 13:16:00,81.7,36.7,30.08,NE,45,0.0,9.1,20,0.00,,,0.00,WUHU21623XXSP,2013-05-07 17:16:00,
2013-05-07 13:21:00,80.6,35.8,30.08,East,90,0.0,9.1,20,0.00,,,0.00,WUHU21623XXSP,2013-05-07 17:21:00,
2013-05-07 13:26:00,80.8,36.0,30.08,NNE,22,3.4,7.3,20,0.00,,,0.00,WUHU21623XXSP,2013-05-07 17:26:00,
2013-05-07 13:31:00,83.1,37.9,30.08,WNW,292,3.8,12.0,20,0.00,,,0.00,WUHU21623XXSP,2013-05-07 17:31:00,
2013-05-07 13:36:00,82.6,37.4,30.07,ENE,67,4.3,12.0,20,0.00,,,0.00,WUHU21623XXSP,2013-05-07 17:36:00,
2013-05-07 13:41:00,82.0,36.9,30.07,NE,45,2.7,9.6,20,0.00,,,0.00,WUHU21623XXSP,2013-05-07 17:41:00,
2013-05-07 13:46:00,83.7,38.3,30.07,ENE,67,3.3,8.7,20,0.00,,,0.00,WUHU21623XXSP,2013-05-07 17:46:00,
2013-05-07 13:51:00,83.8,38.4,30.07,ENE,67,1.4,10.3,20,0.00,,,0.00,WUHU21623XXSP,2013-05-07 17:51:00,
2013-05-07 13:56:00,83.7,38.3,30.07,NNE,22,3.9,10.3,20,0.00,,,0.00,WUHU21623XXSP,2013-05-07 17:56:00,
2013-05-07 14:01:00,83.1,37.9,30.07,NNW,337,3.6,8.7,20,0.00,,,0.00,WUHU21623XXSP,2013-05-07 18:01:00,
2013-05-07 14:06:00,83.1,37.9,30.07,SSW,202,1.0,11.0,20,0.00,,,0.00,WUHU21623XXSP,2013-05-07 18:06:00,
2013-05-07 14:11:00,84.6,39.1,30.07,NE,45,3.0,11.0,20,0.00,,,0.00,WUHU21623XXSP,2013-05-07 18:11:00,
2013-05-07 14:16:00,84.4,38.9,30.06,SE,135,0.0,7.7,20,0.00,,,0.00,WUHU21623XXSP,2013-05-07 18:16:00,
2013-05-07 14:21:00,84.0,38.6,30.06,WNW,292,0.0,12.6,20,0.00,,,0.00,WUHU21623XXSP,2013-05-07 18:21:00,
2013-05-07 14:26:00,84.9,39.3,30.06,NE,45,5.0,12.6,20,0.00,,,0.00,WUHU21623XXSP,2013-05-07 18:26:00,
2013-05-07 14:31:00,84.7,39.2,30.06,North,0,1.9,10.7,20,0.00,,,0.00,WUHU21623XXSP,2013-05-07 18:31:00,
2013-05-07 14:36:00,85.1,39.5,30.06,WSW,247,1.8,7.1,20,0.00,,,0.00,WUHU21623XXSP,2013-05-07 18:36:00,
2013-05-07 14:41:00,84.4,38.9,30.06,SSE,157,1.2,5.7,20,0.00,,,0.00,WUHU21623XXSP,2013-05-07 18:41:00,
2013-05-07 14:46:00,84.6,39.1,30.06,NE,45,2.7,8.3,20,0.00,,,0.00,WUHU21623XXSP,2013-05-07 18:46:00,
2013-05-07 14:51:00,84.7,39.2,30.06,WNW,292,0.0,8.3,20,0.00,,,0.00,WUHU21623XXSP,2013-05-07 18:51:00,
2013-05-07 14:56:00,85.6,39.9,30.06,NE,45,1.8,9.2,20,0.00,,,0.00,WUHU21623XXSP,2013-05-07 18:56:00,
2013-05-07 15:01:00,85.8,40.1,30.05,South,180,9.5,9.7,20,0.00,,,0.00,WUHU21623XXSP,2013-05-07 19:01:00,
2013-05-07 15:06:00,84.9,39.3,30.06,ENE,67,0.0,10.0,20,0.00,,,0.00,WUHU21623XXSP,2013-05-07 19:06:00,
2013-05-07 15:11:00,84.9,39.3,30.05,West,270,2.5,10.0,20,0.00,,,0.00,WUHU21623XXSP,2013-05-07 19:11:00,
2013-05-07 15:16:00,85.5,39.8,30.05,NE,45,1.5,10.3,20,0.00,,,0.00,WUHU21623XXSP,2013-05-07 19:16:00,
2013-05-07 15:21:00,85.3,39.7,30.04,NW,315,4.2,10.3,20,0.00,,,0.00,WUHU21623XXSP,2013-05-07 19:21:00,
2013-05-07 15:26:00,85.5,39.8,30.04,NE,45,2.3,9.9,20,0.00,,,0.00,WUHU21623XXSP,2013-05-07 19:26:00,
2013-05-07 15:31:00,85.8,40.1,30.04,NE,45,5.7,11.3,20,0.00,,,0.00,WUHU21623XXSP,2013-05-07 19:31:00,
2013-05-07 15:36:00,85.6,39.9,30.05,West,270,2.2,11.3,20,0.00,,,0.00,WUHU21623XXSP,2013-05-07 19:36:00,
2013-05-07 15:41:00,85.6,39.9,30.05,WNW,292,1.2,9.1,20,0.00,,,0.00,WUHU21623XXSP,2013-05-07 19:41:00,
2013-05-07 15:46:00,86.2,40.4,30.04,NE,45,4.5,8.2,20,0.00,,,0.00,WUHU21623XXSP,2013-05-07 19:46:00,
2013-05-07 15:51:00,86.2,40.4,30.04,NE,45,1.8,8.2,20,0.00,,,0.00,WUHU21623XXSP,2013-05-07 19:51:00,
2013-05-07 15:56:00,85.6,39.9,30.04,ENE,67,3.1,8.2,20,0.00,,,0.00,WUHU21623XXSP,2013-05-07 19:56:00,
2013-05-07 16:01:00,85.5,39.8,30.04,NNW,337,4.7,6.3,20,0.00,,,0.00,WUHU21623XXSP,2013-05-07 20:01:00,
2013-05-07 16:06:00,85.1,39.5,30.03,NE,45,4.9,6.6,20,0.00,,,0.00,WUHU21623XXSP,2013-05-07 20:06:00,
2013-05-07 16:11:00,85.5,39.8,30.04,NE,45,2.3,7.3,20,0.00,,,0.00,WUHU21623XXSP,2013-05-07 20:11:00,
2013-05-07 16:16:00,85.5,39.8,30.04,NE,45,2.4,8.1,20,0.00,,,0.00,WUHU21623XXSP,2013-05-07 20:16:00,
2013-05-07 16:21:00,84.9,39.3,30.04,NE,45,1.3,8.3,20,0.00,,,0.00,WUHU21623XXSP,2013-05-07 20:21:00,
2013-05-07 16:26:00,84.6,39.1,30.04,NE,45,0.0,8.3,20,0.00,,,0.00,WUHU21623XXSP,2013-05-07 20:26:00,
2013-05-07 16:31:00,84.6,39.1,30.04,WSW,247,7.9,8.8,20,0.00,,,0.00,WUHU21623XXSP,2013-05-07 20:31:00,
2013-05-07 16:36:00,84.4,38.9,30.03,NE,45,0.3,9.8,20,0.00,,,0.00,WUHU21623XXSP,2013-05-07 20:36:00,
2013-05-07 16:41:00,84.4,38.9,30.03,NE,45,5.5,15.1,20,0.00,,,0.00,WUHU21623XXSP,2013-05-07 20:41:00,
2013-05-07 16:46:00,83.8,38.4,30.03,NE,45,2.7,15.1,20,0.00,,,0.00,WUHU21623XXSP,2013-05-07 20:46:00,
2013-05-07 16:51:00,83.8,38.4,30.03,NE,45,0.0,10.3,20,0.00,,,0.00,WUHU21623XXSP,2013-05-07 20:51:00,
2013-05-07 16:56:00,83.7,38.3,30.03,NE,45,4.0,9.4,20,0.00,,,0.00,WUHU21623XXSP,2013-05-07 20:56:00,
2013-05-07 17:01:00,83.3,38.0,30.03,NE,45,0.0,8.7,20,0.00,,,0.00,WUHU21623XXSP,2013-05-07 21:01:00,
2013-05-07 17:06:00,83.3,38.0,30.03,NW,315,3.0,8.5,20,0.00,,,0.00,WUHU21623XXSP,2013-05-07 21:06:00,
2013-05-07 17:11:00,83.3,38.0,30.03,NE,45,5.7,10.1,20,0.00,,,0.00,WUHU21623XXSP,2013-05-07 21:11:00,
2013-05-07 17:16:00,82.6,37.4,30.03,NE,45,4.1,10.3,20,0.00,,,0.00,WUHU21623XXSP,2013-05-07 21:16:00,
2013-05-07 17:21:00,82.0,36.9,30.02,NE,45,2.3,9.2,20,0.00,,,0.00,WUHU21623XXSP,2013-05-07 21:21:00,
2013-05-07 17:26:00,81.9,36.9,30.02,NE,45,6.5,7.3,20,0.00,,,0.00,WUHU21623XXSP,2013-05-07 21:26:00,
2013-05-07 17:31:00,81.9,36.9,30.03,NE,45,2.8,12.0,20,0.00,,,0.00,WUHU21623XXSP,2013-05-07 21:31:00,
2013-05-07 17:36:00,81.3,36.4,30.02,NE,45,4.9,12.0,20,0.00,,,0.00,WUHU21623XXSP,2013-05-07 21:36:00,
2013-05-07 17:41:00,81.3,36.4,30.02,NNW,337,1.2,11.4,20,0.00,,,0.00,WUHU21623XXSP,2013-05-07 21:41:00,
2013-05-07 17:46:00,81.0,36.1,30.03,NNE,22,2.4,11.4,20,0.00,,,0.00,WUHU21623XXSP,2013-05-07 21:46:00,
2013-05-07 17:51:00,80.8,36.0,30.03,NNE,22,5.6,10.0,20,0.00,,,0.00,WUHU21623XXSP,2013-05-07 21:51:00,
2013-05-07 17:56:00,81.0,36.1,30.03,West,270,3.8,10.0,20,0.00,,,0.00,WUHU21623XXSP,2013-05-07 21:56:00,
2013-05-07 18:01:00,80.8,36.0,30.03,NNE,22,2.9,8.0,20,0.00,,,0.00,WUHU21623XXSP,2013-05-07 22:01:00,
2013-05-07 18:06:00,80.1,35.4,30.03,ENE,67,5.9,8.3,20,0.00,,,0.00,WUHU21623XXSP,2013-05-07 22:06:00,
2013-05-07 18:11:00,79.7,35.0,30.03,ENE,67,3.6,9.8,20,0.00,,,0.00,WUHU21623XXSP,2013-05-07 22:11:00,
2013-05-07 18:16:00,79.2,34.6,30.04,NE,45,2.8,9.8,20,0.00,,,0.00,WUHU21623XXSP,2013-05-07 22:16:00,
2013-05-07 18:21:00,77.7,33.4,30.04,North,0,3.7,11.0,20,0.00,,,0.00,WUHU21623XXSP,2013-05-07 22:21:00,
2013-05-07 18:26:00,77.2,33.0,30.03,NE,45,0.0,11.0,20,0.00,,,0.00,WUHU21623XXSP,2013-05-07 22:26:00,
2013-05-07 18:31:00,77.2,33.0,30.04,NE,45,0.0,13.2,20,0.00,,,0.00,WUHU21623XXSP,2013-05-07 22:31:00,
2013-05-07 18:36:00,77.0,32.8,30.03,ESE,112,4.1,13.2,20,0.00,,,0.00,WUHU21623XXSP,2013-05-07 22:36:00,
2013-05-07 18:41:00,76.5,32.4,30.04,ENE,67,3.1,11.6,20,0.00,,,0.00,WUHU21623XXSP,2013-05-07 22:41:00,
2013-05-07 18:46:00,76.5,32.4,30.04,NE,45,2.9,8.3,20,0.00,,,0.00,WUHU21623XXSP,2013-05-07 22:46:00,
2013-05-07 18:51:00,76.1,32.1,30.04,NE,45,4.6,8.3,20,0.00,,,0.00,WUHU21623XXSP,2013-05-07 22:51:00,
2013-05-07 18:56:00,75.9,31.9,30.04,NNE,22,0.0,9.6,20,0.00,,,0.00,WUHU21623XXSP,2013-05-07 22:56:00,
2013-05-07 19:01:00,75.4,31.5,30.04,NNE,22,3.3,9.6,20,0.00,,,0.00,WUHU21623XXSP,2013-05-07 23:01:00,
2013-05-07 19:06:00,75.0,31.2,30.04,NNW,337,0.0,4.9,20,0.00,,,0.00,WUHU21623XXSP,2013-05-07 23:06:00,
2013-05-07 19:11:00,74.7,30.9,30.05,NE,45,2.9,5.1,20,0.00,,,0.00,WUHU21623XXSP,2013-05-07 23:11:00,
2013-05-07 19:16:00,74.1,30.4,30.05,NE,45,0.0,5.1,20,0.00,,,0.00,WUHU21623XXSP,2013-05-07 23:16:00,
2013-05-07 19:21:00,73.8,30.2,30.04,NE,45,0.0,3.8,20,0.00,,,0.00,WUHU21623XXSP,2013-05-07 23:21:00,
2013-05-07 19:26:00,73.6,30.0,30.04,ENE,67,1.8,4.0,20,0.00,,,0.00,WUHU21623XXSP,2013-05-07 23:26:00,
2013-05-07 19:31:00,73.2,29.7,30.05,ENE,67,5.7,6.2,20,0.00,,,0.00,WUHU21623XXSP,2013-05-07 23:31:00,
2013-05-07 19:36:00,73.0,29.5,30.05,ENE,67,1.8,6.4,20,0.00,,,0.00,WUHU21623XXSP,2013-05-07 23:36:00,
2013-05-07 19:41:00,72.9,29.4,30.05,NE,45,3.0,6.4,20,0.00,,,0.00,WUHU21623XXSP,2013-05-07 23:41:00,
2013-05-07 19:46:00,72.5,29.1,30.05,ENE,67,1.9,5.8,20,0.00,,,0.00,WUHU21623XXSP,2013-05-07 23:46:00,
2013-05-07 19:51:00,72.3,28.9,30.06,ENE,67,0.9,8.3,20,0.00,,,0.00,WUHU21623XXSP,2013-05-07 23:51:00,
2013-05-07 19:56:00,72.3,28.9,30.06,ENE,67,0.0,8.3,20,0.00,,,0.00,WUHU21623XXSP,2013-05-07 23:56:00,
2013-05-07 20:01:00,72.0,28.7,30.06,ENE,67,3.6,4.3,20,0.00,,,0.00,WUHU21623XXSP,2013-05-08 00:01:00,
2013-05-07 20:06:00,72.0,28.7,30.06,ENE,67,2.2,6.8,20,0.00,,,0.00,WUHU21623XXSP,2013-05-08 00:06:00,
2013-05-07 20:11:00,71.8,28.5,30.06,NE,45,1.2,6.8,20,0.00,,,0.00,WUHU21623XXSP,2013-05-08 00:11:00,
2013-05-07 20:16:00,71.6,28.3,30.07,ENE,67,0.0,5.0,20,0.00,,,0.00,WUHU21623XXSP,2013-05-08 00:16:00,
2013-05-07 20:21:00,71.2,28.0,30.07,ENE,67,0.0,5.0,20,0.00,,,0.00,WUHU21623XXSP,2013-05-08 00:21:00,
2013-05-07 20:26:00,71.1,31.3,30.07,ENE,67,1.0,4.2,23,0.00,,,0.00,WUHU21623XXSP,2013-05-08 00:26:00,
2013-05-07 20:31:00,70.9,33.2,30.07,ENE,67,2.9,4.9,25,0.00,,,0.00,WUHU21623XXSP,2013-05-08 00:31:00,
2013-05-07 20:36:00,70.5,34.7,30.07,ENE,67,1.1,5.8,27,0.00,,,0.00,WUHU21623XXSP,2013-05-08 00:36:00,
2013-05-07 20:41:00,70.5,36.5,30.08,NE,45,0.0,6.1,29,0.00,,,0.00,WUHU21623XXSP,2013-05-08 00:41:00,
2013-05-07 20:46:00,70.3,37.2,30.08,ENE,67,4.5,6.2,30,0.00,,,0.00,WUHU21623XXSP,2013-05-08 00:46:00,
2013-05-07 20:51:00,70.3,39.6,30.08,ENE,67,1.4,10.7,33,0.00,,,0.00,WUHU21623XXSP,2013-05-08 00:51:00,
2013-05-07 20:56:00,70.2,41.1,30.09,NE,45,0.0,10.7,35,0.00,,,0.00,WUHU21623XXSP,2013-05-08 00:56:00,
2013-05-07 21:01:00,70.2,41.8,30.09,West,270,0.0,5.8,36,0.00,,,0.00,WUHU21623XXSP,2013-05-08 01:01:00,
2013-05-07 21:06:00,69.8,42.2,30.09,ENE,67,2.4,5.0,37,0.00,,,0.00,WUHU21623XXSP,2013-05-08 01:06:00,
2013-05-07 21:11:00,69.4,42.5,30.09,NW,315,0.0,5.7,38,0.00,,,0.00,WUHU21623XXSP,2013-05-08 01:11:00,
2013-05-07 21:16:00,69.3,43.1,30.10,ENE,67,2.1,6.2,39,0.00,,,0.00,WUHU21623XXSP,2013-05-08 01:16:00,
2013-05-07 21:21:00,69.1,43.6,30.09,ENE,67,1.5,6.2,40,0.00,,,0.00,WUHU21623XXSP,2013-05-08 01:21:00,
2013-05-07 21:26:00,68.9,44.1,30.10,NE,45,1.6,6.1,41,0.00,,,0.00,WUHU21623XXSP,2013-05-08 01:26:00,
2013-05-07 21:31:00,68.9,45.4,30.10,NE,45,0.0,5.2,43,0.00,,,0.00,WUHU21623XXSP,2013-05-08 01:31:00,
2013-05-07 21:36:00,68.5,45.0,30.10,NE,45,0.0,5.2,43,0.00,,,0.00,WUHU21623XXSP,2013-05-08 01:36:00,
2013-05-07 21:41:00,68.2,45.4,30.10,NE,45,0.0,2.0,44,0.00,,,0.00,WUHU21623XXSP,2013-05-08 01:41:00,
2013-05-07 21:46:00,68.2,46.6,30.11,NE,45,2.6,2.7,46,0.00,,,0.00,WUHU21623XXSP,2013-05-08 01:46:00,
2013-05-07 21:51:00,67.8,46.8,30.11,ENE,67,0.0,5.3,47,0.00,,,0.00,WUHU21623XXSP,2013-05-08 01:51:00,
2013-05-07 21:56:00,67.6,46.6,30.11,NE,45,0.0,5.3,47,0.00,,,0.00,WUHU21623XXSP,2013-05-08 01:56:00,
2013-05-07 22:01:00,67.1,46.8,30.11,NE,45,0.0,0.0,48,0.00,,,0.00,WUHU21623XXSP,2013-05-08 02:01:00,
2013-05-07 22:06:00,66.6,46.9,30.11,NE,45,0.0,3.9,49,0.00,,,0.00,WUHU21623XXSP,2013-05-08 02:06:00,
2013-05-07 22:11:00,66.6,47.4,30.11,NE,45,0.0,4.6,50,0.00,,,0.00,WUHU21623XXSP,2013-05-08 02:11:00,
2013-05-07 22:16:00,66.2,47.6,30.11,NE,45,0.0,4.6,51,0.00,,,0.00,WUHU21623XXSP,2013-05-08 02:16:00,
2013-05-07 22:21:00,66.4,48.3,30.11,ENE,67,0.0,6.2,52,0.00,,,0.00,WUHU21623XXSP,2013-05-08 02:21:00,
2013-05-07 22:26:00,66.4,48.8,30.11,ESE,112,0.0,6.2,53,0.00,,,0.00,WUHU21623XXSP,2013-05-08 02:26:00,
2013-05-07 22:31:00,65.5,46.9,30.11,ESE,112,0.0,2.3,51,0.00,,,0.00,WUHU21623XXSP,2013-05-08 02:31:00,
2013-05-07 22:36:00,64.8,46.3,30.11,ESE,112,0.0,1.7,51,0.00,,,0.00,WUHU21623XXSP,2013-05-08 02:36:00,
2013-05-07 22:41:00,64.0,46.1,30.11,ESE,112,0.0,0.0,52,0.00,,,0.00,WUHU21623XXSP,2013-05-08 02:41:00,
2013-05-07 22:46:00,63.7,46.3,30.11,ESE,112,0.0,0.0,53,0.00,,,0.00,WUHU21623XXSP,2013-05-08 02:46:00,
2013-05-07 22:51:00,63.5,46.6,30.11,ESE,112,0.0,0.0,54,0.00,,,0.00,WUHU21623XXSP,2013-05-08 02:51:00,
2013-05-07 22:56:00,63.5,47.1,30.11,ESE,112,0.0,0.0,55,0.00,,,0.00,WUHU21623XXSP,2013-05-08 02:56:00,
2013-05-07 23:01:00,63.0,46.2,30.12,ESE,112,0.0,0.0,54,0.00,,,0.00,WUHU21623XXSP,2013-05-08 03:01:00,
2013-05-07 23:06:00,62.2,45.4,30.11,ESE,112,0.0,0.0,54,0.00,,,0.00,WUHU21623XXSP,2013-05-08 03:06:00,
2013-05-07 23:11:00,61.7,45.5,30.12,ESE,112,0.0,0.0,55,0.00,,,0.00,WUHU21623XXSP,2013-05-08 03:11:00,
2013-05-07 23:16:00,61.2,45.5,30.12,ESE,112,0.0,0.0,56,0.00,,,0.00,WUHU21623XXSP,2013-05-08 03:16:00,
2013-05-07 23:21:00,61.0,45.3,30.12,ESE,112,0.0,0.0,56,0.00,,,0.00,WUHU21623XXSP,2013-05-08 03:21:00,
2013-05-07 23:26:00,60.4,45.2,30.12,ESE,112,0.0,0.0,57,0.00,,,0.00,WUHU21623XXSP,2013-05-08 03:26:00,
2013-05-07 23:31:00,60.4,45.2,30.12,ESE,112,0.0,0.0,57,0.00,,,0.00,WUHU21623XXSP,2013-05-08 03:31:00,
2013-05-07 23:36:00,60.1,45.4,30.12,ESE,112,0.0,0.0,58,0.00,,,0.00,WUHU21623XXSP,2013-05-08 03:36:00,
2013-05-07 23:41:00,59.7,45.9,30.13,ESE,112,0.0,0.0,60,0.00,,,0.00,WUHU21623XXSP,2013-05-08 03:41:00,
2013-05-07 23:46:00,59.5,46.2,30.13,ESE,112,0.0,0.0,61,0.00,,,0.00,WUHU21623XXSP,2013-05-08 03:46:00,
2013-05-07 23:51:00,59.2,46.3,30.13,ESE,112,0.0,0.0,62,0.00,,,0.00,WUHU21623XXSP,2013-05-08 03:51:00,
2013-05-07 23:56:00,59.2,46.3,30.13,ESE,112,0.0,0.0,62,0.00,,,0.00,WUHU21623XXSP,2013-05-08 03:56:00,